Time;durP1;ratioP1;P1;durP2;ratioP2;P2;SDS_P1;SDS_P2;PMS_P1;PMS_P2;Temp;Humidity;BMP_temperature;BMP_pressure;BME280_temperature;BME280_humidity;BME280_pressure;Samples;Min_cycle;Max_cycle;Signal;HPM_P1;HPM_P2
2021/07/29 00:00:44;;;;;;;6.35;2.85;;;;;;;18.35;73.87;99656.59;2196279;40;20051;-79
2021/07/29 00:02:16;;;;;;;5.03;3.63;;;;;;;18.38;73.76;99665.13;2195970;40;20047;-78
2021/07/29 00:03:48;;;;;;;5.97;3.10;;;;;;;18.35;73.41;99668.25;2193725;40;20043;-79
2021/07/29 00:05:19;;;;;;;6.28;3.13;;;;;;;18.27;73.92;99668.44;2190531;40;20036;-79
2021/07/29 00:06:53;;;;;;;5.47;2.80;;;;;;;18.14;74.23;99671.94;2195037;40;20455;-79
2021/07/29 00:08:23;;;;;;;7.55;3.05;;;;;;;18.02;74.58;99671.69;2190707;40;20058;-78
2021/07/29 00:09:55;;;;;;;4.25;2.40;;;;;;;17.92;74.99;99674.75;2195183;40;20035;-79
2021/07/29 00:11:28;;;;;;;5.13;2.60;;;;;;;17.84;75.20;99677.63;2197189;40;20399;-78
2021/07/29 00:12:58;;;;;;;4.25;1.90;;;;;;;17.78;75.77;99675.72;2195945;40;20069;-79
2021/07/29 00:14:30;;;;;;;6.03;2.35;;;;;;;17.76;75.86;99675.09;2200942;40;20040;-79
2021/07/29 00:16:03;;;;;;;5.63;2.30;;;;;;;17.75;75.66;99674.25;2199726;40;20300;-78
2021/07/29 00:19:20;;;;;;;6.07;2.45;;;;;;;17.71;75.70;99680.28;2195551;40;20066;-78
2021/07/29 00:20:51;;;;;;;3.85;2.17;;;;;;;17.68;76.01;99684.22;2196392;40;20065;-78
2021/07/29 00:22:25;;;;;;;5.57;2.60;;;;;;;17.66;75.88;99680.06;2195581;40;20078;-79
2021/07/29 00:23:55;;;;;;;6.20;2.60;;;;;;;17.61;76.27;99684.19;2195587;40;20042;-79
2021/07/29 00:25:30;;;;;;;5.38;2.88;;;;;;;17.62;76.36;99683.16;2199610;40;20588;-79
2021/07/29 00:27:01;;;;;;;4.80;2.33;;;;;;;17.60;75.97;99682.50;2200492;40;20035;-79
2021/07/29 00:28:33;;;;;;;4.55;2.70;;;;;;;17.60;76.15;99681.69;2206761;40;20046;-80
2021/07/29 00:30:06;;;;;;;5.25;2.97;;;;;;;17.61;76.01;99680.66;2205795;40;20038;-80
2021/07/29 00:31:39;;;;;;;5.45;2.75;;;;;;;17.57;76.06;99674.78;2202527;40;20046;-80
2021/07/29 00:33:11;;;;;;;4.65;3.20;;;;;;;17.57;75.74;99677.50;2195551;40;20035;-78
2021/07/29 00:34:43;;;;;;;5.60;3.30;;;;;;;17.58;76.00;99675.63;2193593;40;20035;-78
2021/07/29 00:36:21;;;;;;;6.93;3.20;;;;;;;17.62;75.68;99674.19;2191838;40;20308;-78
2021/07/29 00:38:00;;;;;;;8.48;3.40;;;;;;;17.64;75.29;99677.53;2190565;40;20419;-78
2021/07/29 00:39:32;;;;;;;6.03;2.90;;;;;;;17.66;75.19;99683.56;2190858;40;20046;-79
2021/07/29 00:41:04;;;;;;;6.35;3.60;;;;;;;17.67;75.25;99679.84;2193330;40;20050;-78
2021/07/29 00:42:36;;;;;;;5.03;2.40;;;;;;;17.68;74.82;99673.41;2196687;40;20065;-79
2021/07/29 00:44:12;;;;;;;4.90;2.70;;;;;;;17.71;74.94;99675.69;2197723;40;20038;-79
2021/07/29 00:45:44;;;;;;;5.35;2.53;;;;;;;17.74;74.69;99669.88;2197093;40;20039;-79
2021/07/29 00:47:17;;;;;;;4.57;2.83;;;;;;;17.78;74.30;99667.63;2194639;40;20039;-79
2021/07/29 00:48:49;;;;;;;5.75;2.45;;;;;;;17.80;74.12;99665.56;2194259;40;20035;-79
2021/07/29 00:50:20;;;;;;;4.03;2.30;;;;;;;17.80;73.80;99660.13;2190174;40;20031;-80
2021/07/29 00:51:52;;;;;;;6.80;2.80;;;;;;;17.80;73.80;99667.44;2191122;40;20043;-79
2021/07/29 00:53:26;;;;;;;5.85;2.75;;;;;;;17.78;74.00;99665.75;2189508;40;20058;-79
2021/07/29 00:54:58;;;;;;;18.73;3.13;;;;;;;17.79;73.97;99666.59;2199557;40;20477;-78
2021/07/29 00:56:31;;;;;;;5.72;2.72;;;;;;;17.81;73.71;99656.41;2200372;40;20045;-78
2021/07/29 00:58:14;;;;;;;5.03;2.53;;;;;;;17.81;73.29;99655.56;2200018;40;20035;-78
2021/07/29 00:59:46;;;;;;;4.60;2.15;;;;;;;17.84;73.38;99649.75;2198352;40;20027;-79
2021/07/29 01:01:28;;;;;;;5.15;2.45;;;;;;;17.88;73.05;99651.84;2196279;40;20042;-79
2021/07/29 01:03:00;;;;;;;4.68;2.30;;;;;;;17.89;72.90;99652.69;2197178;40;20101;-78
2021/07/29 01:04:35;;;;;;;4.65;2.60;;;;;;;17.89;72.60;99648.13;2197349;40;20039;-78
2021/07/29 01:06:07;;;;;;;5.38;2.00;;;;;;;17.90;72.62;99651.66;2196910;40;20134;-79
2021/07/29 01:07:38;;;;;;;7.00;2.75;;;;;;;17.93;72.38;99648.53;2197260;40;20388;-78
2021/07/29 01:09:11;;;;;;;3.95;2.22;;;;;;;17.92;72.15;99639.59;2197839;40;20177;-80
2021/07/29 01:10:43;;;;;;;5.43;2.08;;;;;;;17.97;71.91;99646.28;2197563;40;20042;-79
2021/07/29 01:12:14;;;;;;;5.25;2.60;;;;;;;17.97;71.77;99643.59;2197531;40;20031;-78
2021/07/29 01:13:45;;;;;;;5.28;2.00;;;;;;;17.98;71.70;99643.41;2197458;40;20058;-79
2021/07/29 01:15:17;;;;;;;4.70;2.60;;;;;;;18.01;71.46;99636.75;2197920;40;20042;-79
2021/07/29 01:16:48;;;;;;;5.18;2.63;;;;;;;17.96;71.61;99631.94;2197946;40;20034;-79
2021/07/29 01:18:21;;;;;;;5.88;2.40;;;;;;;17.95;71.78;99635.66;2197559;40;20035;-79
2021/07/29 01:19:56;;;;;;;4.20;2.30;;;;;;;17.90;71.89;99640.84;2197910;40;20035;-79
2021/07/29 01:21:30;;;;;;;3.88;2.00;;;;;;;17.86;71.71;99629.59;2197660;40;20038;-80
2021/07/29 01:23:01;;;;;;;6.28;2.42;;;;;;;17.82;71.77;99641.84;2197881;40;20038;-80
2021/07/29 01:24:37;;;;;;;5.32;2.47;;;;;;;17.80;71.93;99640.41;2198136;40;20038;-79
2021/07/29 01:26:09;;;;;;;5.28;2.30;;;;;;;17.76;71.75;99639.94;2203347;40;20095;-79
2021/07/29 01:27:46;;;;;;;4.93;2.55;;;;;;;17.77;71.83;99644.31;2204954;40;20031;-79
2021/07/29 01:29:17;;;;;;;4.22;2.13;;;;;;;17.73;71.84;99646.59;2203999;40;20046;-80
2021/07/29 01:30:48;;;;;;;5.97;2.88;;;;;;;17.75;71.71;99641.81;2204004;40;20043;-79
2021/07/29 01:32:19;;;;;;;4.28;2.28;;;;;;;17.80;71.72;99643.91;2204232;40;20047;-79
2021/07/29 01:33:52;;;;;;;5.93;2.70;;;;;;;17.81;71.57;99644.75;2204416;40;20038;-80
2021/07/29 01:35:38;;;;;;;4.28;2.70;;;;;;;17.74;72.07;99645.56;2204043;40;20026;-81
2021/07/29 01:37:16;;;;;;;6.57;2.63;;;;;;;17.72;72.19;99649.50;2200435;40;20031;-80
2021/07/29 01:38:48;;;;;;;5.40;2.72;;;;;;;17.68;72.60;99650.94;2198227;40;20094;-79
2021/07/29 01:40:22;;;;;;;6.13;2.60;;;;;;;17.64;72.43;99644.28;2197840;40;20043;-79
2021/07/29 01:41:52;;;;;;;6.30;2.60;;;;;;;17.58;72.93;99641.31;2197901;40;20042;-79
2021/07/29 01:43:24;;;;;;;4.85;2.72;;;;;;;17.53;72.76;99643.81;2197548;40;20051;-78
2021/07/29 01:45:07;;;;;;;7.07;2.97;;;;;;;17.51;73.17;99642.34;2197314;40;20035;-79
2021/07/29 01:46:38;;;;;;;4.25;2.67;;;;;;;17.47;73.23;99650.03;2197228;40;20039;-79
2021/07/29 01:48:09;;;;;;;4.43;2.50;;;;;;;17.44;73.20;99645.81;2197013;40;20047;-79
2021/07/29 01:49:41;;;;;;;6.88;2.83;;;;;;;17.45;73.06;99652.09;2196620;40;20042;-79
2021/07/29 01:51:13;;;;;;;5.22;2.85;;;;;;;17.43;73.35;99646.03;2191379;40;20038;-79
2021/07/29 01:52:46;;;;;;;5.20;2.38;;;;;;;17.38;73.47;99646.63;2190386;40;20046;-79
2021/07/29 01:54:17;;;;;;;4.97;2.63;;;;;;;17.39;73.02;99644.75;2192091;40;20039;-79
2021/07/29 01:55:49;;;;;;;5.22;2.83;;;;;;;17.41;73.08;99640.00;2202533;40;20050;-79
2021/07/29 01:57:23;;;;;;;5.85;2.70;;;;;;;17.43;72.76;99646.03;2200645;40;20502;-79
2021/07/29 01:58:54;;;;;;;5.57;2.35;;;;;;;17.40;72.63;99643.72;2202700;40;20039;-79
2021/07/29 02:00:26;;;;;;;7.65;2.97;;;;;;;17.37;72.81;99644.16;2200771;40;20058;-79
2021/07/29 02:01:57;;;;;;;4.93;3.05;;;;;;;17.36;72.95;99639.78;2196638;40;20046;-79
2021/07/29 02:03:28;;;;;;;4.85;2.97;;;;;;;17.34;72.95;99648.06;2196642;40;20038;-79
2021/07/29 02:05:00;;;;;;;5.63;2.60;;;;;;;17.34;72.75;99650.75;2192321;40;20087;-78
2021/07/29 02:06:31;;;;;;;5.63;2.53;;;;;;;17.39;72.38;99653.72;2196580;40;20035;-79
2021/07/29 02:08:05;;;;;;;4.88;2.25;;;;;;;17.40;72.65;99644.56;2190806;40;20075;-80
2021/07/29 02:09:36;;;;;;;5.05;2.42;;;;;;;17.45;72.41;99652.09;2191012;40;20043;-80
2021/07/29 02:11:09;;;;;;;4.13;2.30;;;;;;;17.50;72.30;99652.31;2194492;40;20315;-78
2021/07/29 02:12:41;;;;;;;4.18;2.22;;;;;;;17.54;72.01;99644.63;2201921;40;20076;-79
2021/07/29 02:14:13;;;;;;;4.68;2.22;;;;;;;17.58;71.59;99646.72;2200064;40;20423;-79
2021/07/29 02:15:43;;;;;;;5.20;2.35;;;;;;;17.57;71.75;99647.75;2196827;40;20038;-80
2021/07/29 02:17:19;;;;;;;5.50;2.83;;;;;;;17.61;71.22;99648.22;2196866;40;20039;-79
2021/07/29 02:18:50;;;;;;;3.85;2.20;;;;;;;17.62;71.31;99645.31;2196461;40;20092;-79
2021/07/29 02:20:22;;;;;;;5.03;2.63;;;;;;;17.63;71.29;99648.84;2196679;40;20148;-78
2021/07/29 02:21:53;;;;;;;5.32;2.58;;;;;;;17.64;71.35;99644.28;2201046;40;20038;-78
2021/07/29 02:23:26;;;;;;;4.80;2.25;;;;;;;17.62;71.33;99648.00;2202904;40;20038;-78
2021/07/29 02:24:58;;;;;;;5.55;2.58;;;;;;;17.62;71.15;99647.16;2196891;40;20063;-78
2021/07/29 02:26:29;;;;;;;6.35;2.50;;;;;;;17.63;70.77;99651.53;2196829;40;20043;-79
2021/07/29 02:28:01;;;;;;;6.63;2.30;;;;;;;17.64;70.76;99644.28;2197813;40;20320;-79
2021/07/29 02:29:33;;;;;;;4.22;2.00;;;;;;;17.62;70.80;99648.00;2198041;40;20061;-80
2021/07/29 02:31:03;;;;;;;5.90;2.50;;;;;;;17.66;70.57;99650.31;2197247;40;20039;-79
2021/07/29 02:32:35;;;;;;;3.92;2.22;;;;;;;17.70;70.43;99648.88;2197276;40;20057;-79
2021/07/29 02:34:07;;;;;;;4.10;2.03;;;;;;;17.73;70.25;99649.28;2197050;40;20031;-80
2021/07/29 02:35:38;;;;;;;5.47;2.78;;;;;;;17.75;70.08;99641.00;2197010;40;20043;-79
2021/07/29 02:37:10;;;;;;;5.68;2.30;;;;;;;17.76;70.11;99648.03;2200759;40;20042;-79
2021/07/29 02:38:44;;;;;;;4.68;2.50;;;;;;;17.76;69.88;99639.94;2201113;40;20031;-80
2021/07/29 02:40:16;;;;;;;4.53;2.58;;;;;;;17.74;70.00;99645.56;2198328;40;20055;-79
2021/07/29 02:41:46;;;;;;;4.38;2.38;;;;;;;17.75;69.88;99649.13;2198162;40;20031;-79
2021/07/29 02:43:18;;;;;;;4.30;2.20;;;;;;;17.76;69.86;99645.34;2200359;40;20043;-80
2021/07/29 02:44:52;;;;;;;7.57;2.60;;;;;;;17.74;69.95;99644.75;2199312;40;20054;-79
2021/07/29 02:46:23;;;;;;;4.90;2.55;;;;;;;17.70;69.97;99638.91;2200416;40;20094;-79
2021/07/29 02:47:55;;;;;;;4.82;2.40;;;;;;;17.69;69.96;99647.19;2199579;40;20047;-79
2021/07/29 02:49:33;;;;;;;5.25;2.42;;;;;;;17.68;69.93;99645.53;2200602;40;20039;-79
2021/07/29 02:51:04;;;;;;;7.35;2.28;;;;;;;17.69;69.90;99650.75;2201786;40;20043;-80
2021/07/29 02:52:36;;;;;;;6.82;2.72;;;;;;;17.70;69.65;99648.88;2195756;40;20027;-79
2021/07/29 02:54:09;;;;;;;4.82;2.60;;;;;;;17.66;69.55;99647.63;2194640;40;20335;-81
2021/07/29 02:55:39;;;;;;;4.65;2.40;;;;;;;17.65;69.95;99640.53;2202347;40;20038;-78
2021/07/29 02:57:11;;;;;;;4.50;2.33;;;;;;;17.61;69.66;99643.63;2203387;40;20039;-79
2021/07/29 02:58:44;;;;;;;5.30;2.28;;;;;;;17.64;70.04;99644.28;2203120;40;20034;-79
2021/07/29 03:00:18;;;;;;;5.85;2.53;;;;;;;17.65;69.71;99648.66;2200803;40;20038;-80
2021/07/29 03:01:51;;;;;;;4.32;2.53;;;;;;;17.68;69.40;99638.25;2195280;40;20035;-78
2021/07/29 03:03:22;;;;;;;4.85;2.67;;;;;;;17.65;69.57;99645.94;2196647;40;20043;-78
2021/07/29 03:04:54;;;;;;;4.30;2.33;;;;;;;17.69;69.17;99644.50;2194154;40;20426;-78
2021/07/29 03:06:26;;;;;;;4.68;2.35;;;;;;;17.68;69.32;99643.66;2198291;40;20043;-79
2021/07/29 03:07:58;;;;;;;4.13;2.33;;;;;;;17.71;69.22;99642.44;2195426;40;20042;-79
2021/07/29 03:09:31;;;;;;;6.63;2.47;;;;;;;17.74;68.99;99634.75;2200328;40;20030;-78
2021/07/29 03:11:03;;;;;;;8.50;2.78;;;;;;;17.76;68.81;99639.94;2193388;40;20036;-78
2021/07/29 03:12:34;;;;;;;5.85;2.53;;;;;;;17.77;68.67;99638.91;2194739;40;20038;-78
2021/07/29 03:14:06;;;;;;;5.20;2.67;;;;;;;17.80;68.90;99641.22;2192728;40;20071;-79
2021/07/29 03:15:37;;;;;;;4.38;2.35;;;;;;;17.80;68.62;99638.50;2194497;40;20034;-78
2021/07/29 03:17:09;;;;;;;7.30;3.00;;;;;;;17.82;68.78;99639.16;2196158;40;20050;-78
2021/07/29 03:18:41;;;;;;;3.92;2.20;;;;;;;17.82;68.66;99631.03;2197830;40;20031;-79
2021/07/29 03:20:13;;;;;;;5.45;2.30;;;;;;;17.83;68.44;99635.41;2196455;40;20049;-78
2021/07/29 03:21:44;;;;;;;5.60;2.50;;;;;;;17.83;68.45;99640.81;2196759;40;20043;-79
2021/07/29 03:23:16;;;;;;;6.78;2.88;;;;;;;17.80;68.79;99638.50;2196455;40;20084;-80
2021/07/29 04:28:44;;;;;;;8.02;3.92;;;;;;;17.29;71.94;99675.66;2155331;41;20042;-83
2021/07/29 04:53:27;;;;;;;;;;;;;;;17.34;72.61;99671.53;2138896;41;20157;-83
2021/07/29 04:54:59;;;;;;;5.47;3.53;;;;;;;17.36;72.74;99675.72;2151377;41;19928;-84
2021/07/29 04:56:30;;;;;;;7.07;4.03;;;;;;;17.36;72.93;99680.28;2159670;41;20030;-83
2021/07/29 04:58:03;;;;;;;6.72;3.90;;;;;;;17.46;72.47;99675.38;2168168;41;20056;-81
2021/07/29 04:59:39;;;;;;;8.52;4.20;;;;;;;17.50;72.43;99689.31;2179919;40;20028;-83
2021/07/29 05:01:11;;;;;;;6.65;3.60;;;;;;;17.54;72.28;99680.59;2197406;40;20023;-84
2021/07/29 05:02:43;;;;;;;7.20;4.03;;;;;;;17.53;72.46;99681.63;2201583;40;20026;-80
2021/07/29 05:04:17;;;;;;;9.13;3.33;;;;;;;17.47;72.83;99687.84;2197965;40;20032;-82
2021/07/29 05:05:50;;;;;;;6.85;3.50;;;;;;;17.44;72.98;99688.25;2198004;40;20028;-83
2021/07/29 05:07:22;;;;;;;5.25;2.97;;;;;;;17.44;72.90;99680.94;2202103;40;20031;-81
2021/07/29 05:08:55;;;;;;;5.55;3.35;;;;;;;17.49;72.98;99684.94;2203431;40;20042;-83
2021/07/29 05:10:29;;;;;;;5.82;2.78;;;;;;;17.50;73.17;99692.84;2200947;40;20076;-80
2021/07/29 05:12:02;;;;;;;7.28;3.17;;;;;;;17.49;73.07;99682.22;2198019;40;20043;-84
2021/07/29 05:13:33;;;;;;;8.20;3.50;;;;;;;17.46;72.84;99681.59;2201252;40;20023;-84
2021/07/29 05:15:07;;;;;;;7.28;3.10;;;;;;;17.49;73.04;99684.94;2200719;40;20030;-82
2021/07/29 05:16:39;;;;;;;6.47;3.22;;;;;;;17.52;73.26;99676.44;2198612;40;20035;-83
2021/07/29 05:18:11;;;;;;;5.05;3.20;;;;;;;17.53;73.14;99681.63;2198003;40;20043;-84
2021/07/29 05:19:44;;;;;;;6.13;3.42;;;;;;;17.55;72.96;99679.56;2204029;40;20034;-83
2021/07/29 05:21:15;;;;;;;9.23;3.80;;;;;;;17.57;73.03;99679.38;2202366;40;20031;-82
2021/07/29 05:22:47;;;;;;;8.25;4.25;;;;;;;17.55;73.03;99681.44;2203620;40;20031;-83
2021/07/29 05:24:21;;;;;;;6.75;4.30;;;;;;;17.57;73.00;99682.91;2197714;40;20035;-82
2021/07/29 05:25:52;;;;;;;8.13;3.78;;;;;;;17.61;72.85;99686.88;2200801;40;20031;-82
2021/07/29 05:27:23;;;;;;;8.85;4.15;;;;;;;17.69;72.29;99690.44;2199857;40;20042;-82
2021/07/29 05:28:55;;;;;;;6.05;3.80;;;;;;;17.72;72.22;99688.16;2201562;40;20106;-84
2021/07/29 05:30:27;;;;;;;8.48;3.70;;;;;;;17.80;72.22;99687.19;2197842;40;20058;-84
2021/07/29 05:31:59;;;;;;;8.05;3.72;;;;;;;17.78;72.30;99681.13;2202903;40;20038;-86
2021/07/29 05:33:34;;;;;;;7.50;3.38;;;;;;;17.78;72.05;99683.84;2202706;40;20034;-86
2021/07/29 05:35:06;;;;;;;8.15;4.13;;;;;;;17.84;72.00;99674.09;2197694;40;20027;-82
2021/07/29 05:36:38;;;;;;;6.80;4.70;;;;;;;17.91;71.45;99680.34;2202661;40;20030;-82
2021/07/29 05:38:10;;;;;;;6.20;3.80;;;;;;;17.99;71.48;99690.19;2198115;40;20047;-83
2021/07/29 05:39:42;;;;;;;6.72;3.95;;;;;;;18.00;71.29;99676.47;2202292;40;20057;-83
2021/07/29 05:41:14;;;;;;;9.15;3.95;;;;;;;18.07;70.88;99679.19;2202366;40;20023;-79
2021/07/29 05:42:46;;;;;;;6.00;3.67;;;;;;;18.09;70.73;99686.06;2202283;40;20031;-80
2021/07/29 05:44:17;;;;;;;5.75;3.88;;;;;;;18.09;70.80;99679.84;2200226;40;20035;-84
2021/07/29 05:46:26;;;;;;;6.97;4.45;;;;;;;18.12;70.87;99687.56;2201425;40;20095;-81
2021/07/29 05:47:58;;;;;;;9.05;4.28;;;;;;;18.16;70.61;99680.69;2199607;40;20043;-81
2021/07/29 05:49:31;;;;;;;5.68;3.38;;;;;;;18.21;70.56;99689.03;2196109;40;20291;-83
2021/07/29 05:51:03;;;;;;;7.93;3.85;;;;;;;18.23;70.22;99692.34;2195148;40;20040;-81
2021/07/29 05:52:35;;;;;;;6.40;3.75;;;;;;;18.24;70.71;99696.72;2200449;40;20038;-86
2021/07/29 05:54:07;;;;;;;5.22;3.35;;;;;;;18.31;70.39;99696.75;2199624;40;20047;-84
2021/07/29 05:55:41;;;;;;;8.80;4.07;;;;;;;18.39;70.12;99695.75;2195720;40;20051;-82
2021/07/29 05:57:13;;;;;;;7.82;3.85;;;;;;;18.42;70.31;99703.44;2203468;40;20084;-82
2021/07/29 05:58:48;;;;;;;6.75;3.72;;;;;;;18.37;70.23;99698.63;2202481;40;20178;-84
2021/07/29 06:05:25;;;;;;;5.28;3.22;;;;;;;18.52;69.61;99701.16;2156941;41;20058;-84
2021/07/29 06:07:01;;;;;;;5.65;3.22;;;;;;;18.51;69.33;99709.50;2156688;41;20046;-82
2021/07/29 06:08:32;;;;;;;11.05;4.22;;;;;;;18.52;69.22;99706.56;2164456;40;20453;-81
2021/07/29 06:10:05;;;;;;;6.80;3.80;;;;;;;18.54;68.95;99704.50;2193918;40;20057;-82
2021/07/29 06:11:39;;;;;;;7.35;3.60;;;;;;;18.56;69.06;99707.03;2194501;40;20039;-82
2021/07/29 06:13:11;;;;;;;7.32;3.55;;;;;;;18.57;69.07;99708.66;2193713;40;20042;-82
2021/07/29 06:14:41;;;;;;;6.97;3.85;;;;;;;18.55;69.28;99717.00;2194131;40;20050;-82
2021/07/29 06:16:13;;;;;;;6.18;2.83;;;;;;;18.52;69.09;99711.16;2194167;40;20046;-82
2021/07/29 06:17:50;;;;;;;6.07;3.00;;;;;;;18.50;69.16;99707.81;2195654;40;20055;-83
2021/07/29 06:19:31;;;;;;;5.88;3.35;;;;;;;18.51;69.18;99707.63;2194317;40;20039;-85
2021/07/29 06:21:03;;;;;;;5.03;3.20;;;;;;;18.57;68.90;99719.50;2195715;40;20088;-81
2021/07/29 06:22:35;;;;;;;8.38;3.15;;;;;;;18.59;69.22;99717.41;2194939;40;20028;-81
2021/07/29 06:24:07;;;;;;;6.18;3.00;;;;;;;18.58;69.22;99714.94;2194069;40;20482;-81
2021/07/29 06:25:41;;;;;;;8.30;3.60;;;;;;;18.55;69.17;99716.19;2193411;40;20431;-82
2021/07/29 06:30:24;;;;;;;7.28;2.95;;;;;;;18.70;68.96;99705.16;2201532;40;20043;-82
2021/07/29 06:31:55;;;;;;;6.55;3.30;;;;;;;18.73;68.63;99710.16;2203863;40;20050;-83
2021/07/29 06:33:26;;;;;;;7.18;3.28;;;;;;;18.81;68.71;99709.13;2201625;40;20051;-81
2021/07/29 06:34:58;;;;;;;8.18;3.10;;;;;;;18.96;68.17;99706.25;2199289;40;20046;-83
2021/07/29 06:36:30;;;;;;;6.55;3.10;;;;;;;19.05;67.94;99710.41;2199668;40;20055;-85
2021/07/29 06:38:02;;;;;;;7.00;3.38;;;;;;;19.13;67.65;99707.50;2200084;40;20043;-82
2021/07/29 06:39:33;;;;;;;5.53;3.15;;;;;;;19.22;67.48;99707.28;2200586;40;20038;-80
2021/07/29 06:41:06;;;;;;;6.65;3.30;;;;;;;19.33;66.99;99714.78;2201339;40;20059;-80
2021/07/29 06:42:40;;;;;;;6.82;3.28;;;;;;;19.37;66.89;99712.47;2202862;40;20030;-81
2021/07/29 06:44:11;;;;;;;7.95;2.85;;;;;;;19.38;66.54;99704.13;2203387;40;20050;-82
2021/07/29 06:45:45;;;;;;;5.40;2.67;;;;;;;19.42;66.79;99707.22;2202397;40;20137;-81
2021/07/29 06:47:20;;;;;;;5.60;3.00;;;;;;;19.53;66.47;99705.78;2201918;40;20019;-83
2021/07/29 06:48:51;;;;;;;5.43;2.60;;;;;;;19.63;66.17;99715.13;2201582;40;20207;-81
2021/07/29 06:50:23;;;;;;;5.95;3.20;;;;;;;19.74;65.86;99713.63;2201704;40;20031;-80
2021/07/29 06:51:54;;;;;;;6.07;3.22;;;;;;;19.85;65.64;99714.00;2200195;40;20042;-81
2021/07/29 06:53:26;;;;;;;6.82;3.22;;;;;;;19.87;65.27;99709.25;2202004;40;20035;-80
2021/07/29 06:54:58;;;;;;;5.25;2.65;;;;;;;19.76;65.15;99718.84;2199797;40;20039;-79
2021/07/29 06:56:30;;;;;;;5.68;2.60;;;;;;;19.71;65.47;99724.91;2199648;40;20100;-83
2021/07/29 06:58:02;;;;;;;4.88;2.90;;;;;;;19.71;65.59;99724.06;2193060;40;20054;-82
2021/07/29 06:59:34;;;;;;;6.45;2.70;;;;;;;19.74;65.39;99729.88;2193645;40;20392;-83
2021/07/29 07:01:19;;;;;;;8.05;3.50;;;;;;;19.82;65.28;99719.88;2198150;40;20023;-83
2021/07/29 07:02:51;;;;;;;9.18;3.10;;;;;;;19.79;65.28;99721.97;2199276;40;20046;-82
2021/07/29 07:04:23;;;;;;;6.78;3.08;;;;;;;19.83;65.21;99721.53;2200983;40;20024;-84
2021/07/29 07:06:00;;;;;;;5.30;2.53;;;;;;;19.82;65.40;99719.88;2202208;40;20043;-82
2021/07/29 07:07:32;;;;;;;6.15;2.63;;;;;;;19.77;65.24;99729.47;2201630;40;20042;-84
2021/07/29 07:09:04;;;;;;;5.63;2.53;;;;;;;19.77;65.58;99723.22;2200421;40;20055;-83
2021/07/29 07:10:34;;;;;;;4.50;2.38;;;;;;;19.85;65.55;99724.84;2199111;40;20031;-87
2021/07/29 07:12:07;;;;;;;9.05;2.92;;;;;;;19.97;65.26;99727.78;2204491;40;20038;-85
2021/07/29 07:13:39;;;;;;;5.60;2.63;;;;;;;20.00;65.04;99730.91;2204375;40;20023;-87
2021/07/29 07:15:12;;;;;;;6.68;2.38;;;;;;;20.01;65.13;99720.88;2204463;40;20049;-87
2021/07/29 07:16:44;;;;;;;6.40;2.53;;;;;;;20.07;64.81;99733.59;2198380;40;20035;-86
2021/07/29 07:23:09;;;;;;;7.55;2.45;;;;;;;20.36;62.11;99726.75;2209201;40;20027;-85
2021/07/29 07:24:40;;;;;;;4.63;2.35;;;;;;;20.38;61.98;99724.66;2210482;40;20138;-87
2021/07/29 07:26:22;;;;;;;6.88;2.40;;;;;;;20.46;61.63;99725.47;2204109;40;20035;-90
2021/07/29 07:27:54;;;;;;;6.22;2.70;;;;;;;20.48;61.37;99726.09;2204543;40;20033;-86
2021/07/29 07:29:26;;;;;;;4.82;2.40;;;;;;;20.52;61.33;99721.88;2204382;40;20478;-89
2021/07/29 07:30:57;;;;;;;4.75;2.30;;;;;;;20.58;60.95;99721.81;2204463;40;20916;-91
2021/07/29 07:32:31;;;;;;;6.05;2.70;;;;;;;20.63;60.70;99718.47;2204526;40;20031;-87
2021/07/29 07:34:03;;;;;;;4.68;2.50;;;;;;;20.63;60.39;99721.16;2204248;40;20019;-88
2021/07/29 07:35:35;;;;;;;6.47;2.40;;;;;;;20.72;60.11;99727.19;2204516;40;20034;-87
2021/07/29 07:37:06;;;;;;;5.13;2.88;;;;;;;20.77;59.88;99724.66;2204444;40;20034;-86
2021/07/29 07:38:37;;;;;;;12.10;2.63;;;;;;;20.91;59.61;99722.69;2204485;40;20027;-86
2021/07/29 07:40:10;;;;;;;7.82;2.53;;;;;;;21.04;58.77;99725.31;2204541;40;20023;-87
2021/07/29 07:41:41;;;;;;;7.43;2.08;;;;;;;21.14;57.77;99722.06;2204367;40;20043;-88
2021/07/29 07:43:15;;;;;;;4.85;2.20;;;;;;;21.18;57.56;99730.59;2204472;40;20027;-89
2021/07/29 07:44:47;;;;;;;6.40;2.63;;;;;;;21.26;56.79;99724.88;2204336;40;20031;-86
2021/07/29 07:46:20;;;;;;;6.20;2.60;;;;;;;21.21;56.72;99732.06;2204252;40;20038;-86
2021/07/29 07:47:53;;;;;;;4.75;2.40;;;;;;;21.18;56.82;99728.72;2203837;40;20050;-84
2021/07/29 07:49:25;;;;;;;6.10;2.70;;;;;;;21.24;56.63;99731.59;2204209;40;20485;-86
2021/07/29 07:50:56;;;;;;;6.00;2.55;;;;;;;21.37;56.02;99730.66;2203307;40;20470;-85
2021/07/29 07:52:28;;;;;;;6.53;2.00;;;;;;;21.37;55.36;99727.94;2203511;40;20437;-86
2021/07/29 07:54:00;;;;;;;6.15;2.10;;;;;;;21.37;54.75;99730.66;2210062;40;20015;-86
2021/07/29 07:55:32;;;;;;;6.35;2.10;;;;;;;21.43;54.34;99735.22;2210537;40;20041;-90
2021/07/29 07:57:06;;;;;;;7.38;2.50;;;;;;;21.51;53.98;99726.75;2210045;40;20529;-87
2021/07/29 07:58:37;;;;;;;4.40;1.88;;;;;;;21.49;53.71;99729.69;2191643;40;20048;-87
2021/07/29 08:00:11;;;;;;;4.88;2.60;;;;;;;21.40;52.21;99725.59;2191673;40;20040;-88
2021/07/29 08:01:44;;;;;;;6.30;2.28;;;;;;;21.39;51.71;99728.53;2189643;40;20040;-87
2021/07/29 08:03:16;;;;;;;4.97;2.08;;;;;;;21.41;51.58;99732.69;2202838;40;20039;-88
2021/07/29 08:04:48;;;;;;;4.80;2.15;;;;;;;21.48;51.53;99732.63;2204415;40;20041;-88
2021/07/29 08:07:54;;;;;;;5.22;2.22;;;;;;;21.94;50.58;99715.00;2191341;40;20087;-87
2021/07/29 08:09:27;;;;;;;5.82;1.98;;;;;;;22.16;49.96;99719.97;2192198;40;20035;-87
2021/07/29 08:10:58;;;;;;;6.55;2.40;;;;;;;22.32;49.59;99704.91;2191097;40;20027;-86
2021/07/29 08:12:30;;;;;;;4.20;2.13;;;;;;;22.48;48.54;99703.44;2171986;41;20044;-84
2021/07/29 08:14:02;;;;;;;4.53;2.05;;;;;;;22.68;48.43;99705.03;2169852;40;20025;-85
2021/07/29 08:15:34;;;;;;;5.65;2.28;;;;;;;22.77;47.84;99702.81;2177503;40;20048;-84
2021/07/29 08:17:05;;;;;;;7.10;2.45;;;;;;;22.83;47.71;99704.59;2189743;40;20588;-85
2021/07/29 08:18:38;;;;;;;4.88;2.08;;;;;;;23.02;46.84;99702.63;2186943;40;20048;-84
2021/07/29 08:20:12;;;;;;;4.85;2.30;;;;;;;23.23;45.94;99687.59;2185819;40;20103;-85
2021/07/29 08:21:44;;;;;;;4.45;2.17;;;;;;;23.34;45.16;99694.09;2186343;40;20036;-84
2021/07/29 08:23:15;;;;;;;5.57;1.90;;;;;;;23.27;45.22;99704.31;2191883;40;20040;-87
2021/07/29 08:24:47;;;;;;;5.38;2.40;;;;;;;23.32;45.62;99707.16;2191219;40;20035;-86
2021/07/29 08:26:19;;;;;;;4.72;1.67;;;;;;;23.50;45.18;99698.84;2185279;40;20369;-87
2021/07/29 08:27:51;;;;;;;5.38;2.10;;;;;;;23.67;44.83;99696.19;2186044;40;20040;-90
2021/07/29 08:29:23;;;;;;;5.82;2.47;;;;;;;23.84;44.41;99695.47;2182276;40;20492;-86
2021/07/29 08:30:55;;;;;;;4.57;2.30;;;;;;;23.99;44.51;99695.81;2186031;40;20032;-85
2021/07/29 08:32:27;;;;;;;5.85;2.20;;;;;;;24.08;43.65;99707.19;2191864;40;20051;-85
2021/07/29 08:34:03;;;;;;;4.20;2.03;;;;;;;23.88;44.23;99704.81;2191295;40;20042;-86
2021/07/29 08:35:36;;;;;;;6.43;2.53;;;;;;;23.64;44.86;99712.22;2185575;40;20047;-87
2021/07/29 08:37:08;;;;;;;4.53;2.03;;;;;;;23.63;45.09;99707.84;2185671;40;20040;-87
2021/07/29 08:38:40;;;;;;;4.53;2.20;;;;;;;23.74;45.12;99709.72;2168743;41;20048;-87
2021/07/29 08:40:15;;;;;;;6.38;2.63;;;;;;;23.68;44.87;99703.31;2186786;40;20050;-86
2021/07/29 08:41:47;;;;;;;5.18;2.13;;;;;;;23.67;45.13;99703.56;2173092;41;20045;-85
2021/07/29 08:43:19;;;;;;;6.47;2.50;;;;;;;23.47;44.70;99706.69;2189863;40;20036;-85
2021/07/29 08:44:52;;;;;;;4.93;2.38;;;;;;;23.34;44.76;99708.59;2186485;40;20066;-87
2021/07/29 08:46:23;;;;;;;7.07;1.90;;;;;;;23.03;43.96;99709.72;2185258;41;20408;-86
2021/07/29 08:47:56;;;;;;;6.13;1.77;;;;;;;22.83;44.17;99710.03;2185620;40;20059;-89
2021/07/29 08:49:30;;;;;;;5.57;2.00;;;;;;;22.78;44.27;99712.63;2194641;40;20035;-87
2021/07/29 08:51:02;;;;;;;8.98;2.00;;;;;;;22.72;44.58;99719.84;2185248;41;20040;-86
2021/07/29 08:52:34;;;;;;;5.70;1.90;;;;;;;22.62;44.39;99708.69;2191793;40;20039;-89
2021/07/29 08:54:08;;;;;;;7.32;2.28;;;;;;;22.54;44.27;99709.84;2191554;40;20039;-88
2021/07/29 08:55:40;;;;;;;5.55;2.30;;;;;;;22.46;44.73;99721.06;2186314;40;20043;-84
2021/07/29 08:57:14;;;;;;;6.20;1.80;;;;;;;22.48;44.93;99708.06;2191601;40;20020;-86
2021/07/29 08:58:46;;;;;;;5.13;2.15;;;;;;;22.65;44.55;99711.78;2190510;40;20028;-84
2021/07/29 09:00:19;;;;;;;4.95;2.20;;;;;;;22.82;43.77;99714.66;2188947;40;20025;-84